sensor_id;sensor_type;location;lat;lon;timestamp;pressure;altitude;pressure_sealevel;temperature;humidity
20145;BME280;10233;50.814;6.590;2023-03-31T00:00:53;99226.06;;;11.88;100.00
20145;BME280;10233;50.814;6.590;2023-03-31T00:01:57;99224.91;;;11.95;100.00
20145;BME280;10233;50.814;6.590;2023-03-31T00:02:57;99224.69;;;11.85;100.00
20145;BME280;10233;50.814;6.590;2023-03-31T00:03:59;99213.91;;;11.80;100.00
20145;BME280;10233;50.814;6.590;2023-03-31T00:05:03;99219.50;;;11.79;100.00
20145;BME280;10233;50.814;6.590;2023-03-31T00:06:05;99211.63;;;11.72;100.00
20145;BME280;10233;50.814;6.590;2023-03-31T00:07:05;99215.91;;;11.73;100.00
20145;BME280;10233;50.814;6.590;2023-03-31T00:08:09;99212.69;;;11.71;100.00
20145;BME280;10233;50.814;6.590;2023-03-31T00:09:14;99219.50;;;11.67;100.00
20145;BME280;10233;50.814;6.590;2023-03-31T00:10:21;99194.41;;;11.63;100.00
20145;BME280;10233;50.814;6.590;2023-03-31T00:11:23;99201.56;;;11.63;100.00
20145;BME280;10233;50.814;6.590;2023-03-31T00:12:23;99199.72;;;11.63;100.00
20145;BME280;10233;50.814;6.590;2023-03-31T00:13:24;99193.13;;;11.66;100.00
20145;BME280;10233;50.814;6.590;2023-03-31T00:14:24;99188.03;;;11.64;100.00
20145;BME280;10233;50.814;6.590;2023-03-31T00:15:25;99190.69;;;11.64;100.00
20145;BME280;10233;50.814;6.590;2023-03-31T00:16:26;99189.06;;;11.63;100.00
20145;BME280;10233;50.814;6.590;2023-03-31T00:17:27;99182.94;;;11.63;100.00
20145;BME280;10233;50.814;6.590;2023-03-31T00:18:28;99182.94;;;11.63;100.00
20145;BME280;10233;50.814;6.590;2023-03-31T00:19:29;99183.41;;;11.60;100.00
20145;BME280;10233;50.814;6.590;2023-03-31T00:20:32;99184.78;;;11.62;100.00
20145;BME280;10233;50.814;6.590;2023-03-31T00:21:37;99169.28;;;11.59;100.00
20145;BME280;10233;50.814;6.590;2023-03-31T00:22:38;99172.97;;;11.70;100.00
20145;BME280;10233;50.814;6.590;2023-03-31T00:23:41;99173.19;;;11.68;100.00
20145;BME280;10233;50.814;6.590;2023-03-31T00:24:42;99173.75;;;11.70;100.00
20145;BME280;10233;50.814;6.590;2023-03-31T00:25:43;99166.63;;;11.59;100.00
20145;BME280;10233;50.814;6.590;2023-03-31T00:26:44;99166.38;;;11.49;100.00
20145;BME280;10233;50.814;6.590;2023-03-31T00:27:45;99162.81;;;11.44;100.00
20145;BME280;10233;50.814;6.590;2023-03-31T00:28:49;99157.97;;;11.41;100.00
20145;BME280;10233;50.814;6.590;2023-03-31T00:29:50;99162.22;;;11.42;100.00
20145;BME280;10233;50.814;6.590;2023-03-31T00:30:59;99150.91;;;11.35;100.00
20145;BME280;10233;50.814;6.590;2023-03-31T00:32:00;99146.63;;;11.34;100.00
20145;BME280;10233;50.814;6.590;2023-03-31T00:33:01;99145.81;;;11.33;100.00
20145;BME280;10233;50.814;6.590;2023-03-31T00:34:02;99145.81;;;11.33;100.00
20145;BME280;10233;50.814;6.590;2023-03-31T00:35:03;99139.44;;;11.46;100.00
20145;BME280;10233;50.814;6.590;2023-03-31T00:36:04;99148.00;;;11.36;100.00
20145;BME280;10233;50.814;6.590;2023-03-31T00:37:05;99139.44;;;11.34;100.00
20145;BME280;10233;50.814;6.590;2023-03-31T00:38:09;99148.81;;;11.37;100.00
20145;BME280;10233;50.814;6.590;2023-03-31T00:39:16;99141.88;;;11.47;100.00
20145;BME280;10233;50.814;6.590;2023-03-31T00:40:17;99143.38;;;11.43;100.00
20145;BME280;10233;50.814;6.590;2023-03-31T00:41:18;99145.22;;;11.43;100.00
20145;BME280;10233;50.814;6.590;2023-03-31T00:42:19;99142.66;;;11.36;100.00
20145;BME280;10233;50.814;6.590;2023-03-31T00:43:35;99141.63;;;11.49;100.00
20145;BME280;10233;50.814;6.590;2023-03-31T00:45:06;99134.94;;;11.46;100.00
20145;BME280;10233;50.814;6.590;2023-03-31T00:46:17;99123.13;;;11.42;100.00
20145;BME280;10233;50.814;6.590;2023-03-31T00:47:19;99113.66;;;11.35;100.00
20145;BME280;10233;50.814;6.590;2023-03-31T00:48:20;99114.34;;;11.30;100.00
20145;BME280;10233;50.814;6.590;2023-03-31T00:49:40;99111.81;;;11.24;100.00
20145;BME280;10233;50.814;6.590;2023-03-31T00:51:03;99101.88;;;11.19;100.00
20145;BME280;10233;50.814;6.590;2023-03-31T00:52:23;99106.75;;;11.22;100.00
20145;BME280;10233;50.814;6.590;2023-03-31T00:53:28;99114.03;;;11.15;100.00
20145;BME280;10233;50.814;6.590;2023-03-31T00:54:30;99103.16;;;11.17;100.00
20145;BME280;10233;50.814;6.590;2023-03-31T00:55:36;99110.22;;;11.11;100.00
20145;BME280;10233;50.814;6.590;2023-03-31T00:56:41;99102.03;;;11.01;100.00
20145;BME280;10233;50.814;6.590;2023-03-31T00:57:44;99107.81;;;11.10;100.00
20145;BME280;10233;50.814;6.590;2023-03-31T00:58:46;99109.53;;;11.04;100.00
20145;BME280;10233;50.814;6.590;2023-03-31T00:59:52;99105.28;;;11.03;100.00
20145;BME280;10233;50.814;6.590;2023-03-31T01:00:56;99099.25;;;11.08;100.00
20145;BME280;10233;50.814;6.590;2023-03-31T01:01:58;99099.13;;;11.14;100.00
20145;BME280;10233;50.814;6.590;2023-03-31T01:03:06;99093.69;;;11.09;100.00
20145;BME280;10233;50.814;6.590;2023-03-31T01:04:12;99103.38;;;11.15;100.00
20145;BME280;10233;50.814;6.590;2023-03-31T01:05:14;99090.31;;;11.25;100.00
20145;BME280;10233;50.814;6.590;2023-03-31T01:06:16;99090.31;;;11.25;100.00
20145;BME280;10233;50.814;6.590;2023-03-31T01:08:33;99080.19;;;11.39;100.00
20145;BME280;10233;50.814;6.590;2023-03-31T01:09:36;99085.28;;;11.40;100.00
20145;BME280;10233;50.814;6.590;2023-03-31T01:10:40;99082.50;;;11.47;100.00
20145;BME280;10233;50.814;6.590;2023-03-31T01:11:45;99078.31;;;11.62;100.00
20145;BME280;10233;50.814;6.590;2023-03-31T01:12:50;99083.63;;;11.62;100.00
20145;BME280;10233;50.814;6.590;2023-03-31T01:13:55;99077.03;;;11.65;100.00
20145;BME280;10233;50.814;6.590;2023-03-31T01:14:57;99075.75;;;11.67;100.00
20145;BME280;10233;50.814;6.590;2023-03-31T01:15:59;99075.84;;;11.72;100.00
20145;BME280;10233;50.814;6.590;2023-03-31T01:17:00;99075.25;;;11.70;100.00
20145;BME280;10233;50.814;6.590;2023-03-31T01:18:03;99069.56;;;11.78;100.00
20145;BME280;10233;50.814;6.590;2023-03-31T01:19:46;99070.38;;;11.79;100.00
20145;BME280;10233;50.814;6.590;2023-03-31T01:24:10;99057.94;;;11.84;100.00
20145;BME280;10233;50.814;6.590;2023-03-31T01:25:30;99059.09;;;11.88;100.00
20145;BME280;10233;50.814;6.590;2023-03-31T01:30:36;99045.06;;;11.93;100.00
20145;BME280;10233;50.814;6.590;2023-03-31T01:41:32;99045.41;;;12.29;100.00
20145;BME280;10233;50.814;6.590;2023-03-31T01:44:13;99034.31;;;12.21;100.00
20145;BME280;10233;50.814;6.590;2023-03-31T01:46:37;99026.50;;;12.14;100.00
20145;BME280;10233;50.814;6.590;2023-03-31T01:48:13;99028.13;;;12.15;100.00
20145;BME280;10233;50.814;6.590;2023-03-31T01:49:38;99020.44;;;12.19;100.00
20145;BME280;10233;50.814;6.590;2023-03-31T01:50:57;99021.97;;;12.15;100.00
20145;BME280;10233;50.814;6.590;2023-03-31T01:55:23;99008.41;;;12.16;100.00
20145;BME280;10233;50.814;6.590;2023-03-31T01:56:38;99007.28;;;12.12;100.00
20145;BME280;10233;50.814;6.590;2023-03-31T01:57:48;99003.56;;;12.13;100.00
20145;BME280;10233;50.814;6.590;2023-03-31T02:01:20;98990.25;;;12.13;100.00
20145;BME280;10233;50.814;6.590;2023-03-31T02:02:27;98987.09;;;12.16;100.00
20145;BME280;10233;50.814;6.590;2023-03-31T02:03:36;98981.47;;;12.13;100.00
20145;BME280;10233;50.814;6.590;2023-03-31T02:04:44;98972.88;;;12.11;100.00
20145;BME280;10233;50.814;6.590;2023-03-31T02:05:51;98972.56;;;12.07;100.00
20145;BME280;10233;50.814;6.590;2023-03-31T02:06:57;98972.56;;;12.07;100.00
20145;BME280;10233;50.814;6.590;2023-03-31T02:08:07;98963.06;;;12.11;100.00
20145;BME280;10233;50.814;6.590;2023-03-31T02:09:14;98960.00;;;12.03;100.00
20145;BME280;10233;50.814;6.590;2023-03-31T02:10:17;98958.94;;;12.04;100.00
20145;BME280;10233;50.814;6.590;2023-03-31T02:11:20;98948.22;;;11.99;100.00
20145;BME280;10233;50.814;6.590;2023-03-31T02:12:24;98952.72;;;11.98;100.00
20145;BME280;10233;50.814;6.590;2023-03-31T02:13:29;98948.38;;;11.92;100.00
20145;BME280;10233;50.814;6.590;2023-03-31T02:14:35;98948.38;;;11.92;100.00
20145;BME280;10233;50.814;6.590;2023-03-31T02:15:44;98935.53;;;11.89;100.00
20145;BME280;10233;50.814;6.590;2023-03-31T02:16:50;98940.06;;;11.89;100.00
20145;BME280;10233;50.814;6.590;2023-03-31T02:17:59;98933.13;;;11.88;100.00
20145;BME280;10233;50.814;6.590;2023-03-31T02:19:03;98938.69;;;11.86;100.00
20145;BME280;10233;50.814;6.590;2023-03-31T02:20:09;98936.50;;;11.83;100.00
20145;BME280;10233;50.814;6.590;2023-03-31T02:21:11;98924.47;;;11.81;100.00
20145;BME280;10233;50.814;6.590;2023-03-31T02:22:15;98922.88;;;11.80;100.00
20145;BME280;10233;50.814;6.590;2023-03-31T02:23:23;98914.97;;;11.85;100.00
20145;BME280;10233;50.814;6.590;2023-03-31T02:24:27;98909.63;;;11.85;100.00
20145;BME280;10233;50.814;6.590;2023-03-31T02:25:35;98910.78;;;11.72;100.00
20145;BME280;10233;50.814;6.590;2023-03-31T02:28:09;98924.00;;;11.67;100.00
20145;BME280;10233;50.814;6.590;2023-03-31T02:29:11;98909.63;;;11.68;100.00
20145;BME280;10233;50.814;6.590;2023-03-31T02:30:13;98915.34;;;11.77;100.00
20145;BME280;10233;50.814;6.590;2023-03-31T02:32:34;98907.06;;;11.73;100.00
20145;BME280;10233;50.814;6.590;2023-03-31T02:33:36;98904.63;;;11.72;100.00
20145;BME280;10233;50.814;6.590;2023-03-31T02:34:38;98883.56;;;11.70;100.00
20145;BME280;10233;50.814;6.590;2023-03-31T02:35:39;98879.53;;;11.68;100.00
20145;BME280;10233;50.814;6.590;2023-03-31T02:36:41;98867.88;;;11.69;100.00
20145;BME280;10233;50.814;6.590;2023-03-31T02:37:44;98859.06;;;11.68;100.00
20145;BME280;10233;50.814;6.590;2023-03-31T02:39:08;98845.19;;;11.66;100.00
20145;BME280;10233;50.814;6.590;2023-03-31T02:40:16;98849.63;;;11.61;100.00
20145;BME280;10233;50.814;6.590;2023-03-31T02:41:17;98851.31;;;11.67;100.00
20145;BME280;10233;50.814;6.590;2023-03-31T02:42:17;98842.19;;;11.63;100.00
20145;BME280;10233;50.814;6.590;2023-03-31T02:43:19;98835.25;;;11.62;100.00
20145;BME280;10233;50.814;6.590;2023-03-31T02:44:21;98830.25;;;11.65;100.00
20145;BME280;10233;50.814;6.590;2023-03-31T02:45:41;98823.56;;;11.63;100.00
20145;BME280;10233;50.814;6.590;2023-03-31T02:46:43;98825.75;;;11.66;100.00
20145;BME280;10233;50.814;6.590;2023-03-31T02:47:44;98822.66;;;11.57;100.00
20145;BME280;10233;50.814;6.590;2023-03-31T02:48:51;98821.63;;;11.58;100.00
20145;BME280;10233;50.814;6.590;2023-03-31T02:49:55;98815.56;;;11.63;100.00
20145;BME280;10233;50.814;6.590;2023-03-31T02:59:13;98802.25;;;11.63;100.00
20145;BME280;10233;50.814;6.590;2023-03-31T03:07:24;98790.97;;;11.56;100.00
20145;BME280;10233;50.814;6.590;2023-03-31T03:11:24;98769.78;;;11.61;100.00
20145;BME280;10233;50.814;6.590;2023-03-31T03:12:51;98766.19;;;11.55;100.00
20145;BME280;10233;50.814;6.590;2023-03-31T03:13:59;98767.84;;;11.56;100.00
20145;BME280;10233;50.814;6.590;2023-03-31T03:16:29;98782.84;;;11.62;100.00
20145;BME280;10233;50.814;6.590;2023-03-31T03:17:39;98776.94;;;11.60;100.00
20145;BME280;10233;50.814;6.590;2023-03-31T03:19:02;98773.69;;;11.58;100.00
20145;BME280;10233;50.814;6.590;2023-03-31T03:20:05;98769.78;;;11.61;100.00
20145;BME280;10233;50.814;6.590;2023-03-31T03:21:08;98764.69;;;11.59;100.00
20145;BME280;10233;50.814;6.590;2023-03-31T03:22:09;98761.84;;;11.49;100.00
20145;BME280;10233;50.814;6.590;2023-03-31T03:23:09;98768.47;;;11.47;100.00
20145;BME280;10233;50.814;6.590;2023-03-31T03:24:10;98769.06;;;11.49;100.00
20145;BME280;10233;50.814;6.590;2023-03-31T03:25:14;98769.53;;;11.46;100.00
20145;BME280;10233;50.814;6.590;2023-03-31T03:26:16;98755.91;;;11.42;100.00
20145;BME280;10233;50.814;6.590;2023-03-31T03:27:20;98750.09;;;11.45;100.00
20145;BME280;10233;50.814;6.590;2023-03-31T03:28:23;98748.63;;;11.54;100.00
20145;BME280;10233;50.814;6.590;2023-03-31T03:29:24;98753.72;;;11.56;100.00
20145;BME280;10233;50.814;6.590;2023-03-31T03:30:26;98748.63;;;11.54;100.00
20145;BME280;10233;50.814;6.590;2023-03-31T03:31:27;98745.47;;;11.57;100.00
20145;BME280;10233;50.814;6.590;2023-03-31T03:32:28;98743.41;;;11.59;100.00
20145;BME280;10233;50.814;6.590;2023-03-31T03:33:28;98746.06;;;11.59;100.00
20145;BME280;10233;50.814;6.590;2023-03-31T03:34:29;98736.84;;;11.50;100.00
20145;BME280;10233;50.814;6.590;2023-03-31T03:35:30;98738.41;;;11.46;100.00
20145;BME280;10233;50.814;6.590;2023-03-31T03:36:30;98743.75;;;11.46;100.00
20145;BME280;10233;50.814;6.590;2023-03-31T03:37:33;98749.59;;;11.48;100.00
20145;BME280;10233;50.814;6.590;2023-03-31T03:38:34;98744.28;;;11.48;100.00
20145;BME280;10233;50.814;6.590;2023-03-31T03:39:36;98742.00;;;11.57;100.00
20145;BME280;10233;50.814;6.590;2023-03-31T03:40:36;98750.97;;;11.51;100.00
20145;BME280;10233;50.814;6.590;2023-03-31T03:41:38;98745.09;;;11.49;100.00
20145;BME280;10233;50.814;6.590;2023-03-31T03:42:39;98729.38;;;11.47;100.00
20145;BME280;10233;50.814;6.590;2023-03-31T03:43:40;98734.63;;;11.42;100.00
20145;BME280;10233;50.814;6.590;2023-03-31T03:44:40;98733.25;;;11.40;100.00
20145;BME280;10233;50.814;6.590;2023-03-31T03:45:41;98736.78;;;11.45;100.00
20145;BME280;10233;50.814;6.590;2023-03-31T03:46:42;98728.19;;;11.38;100.00
20145;BME280;10233;50.814;6.590;2023-03-31T03:47:42;98729.78;;;11.39;100.00
20145;BME280;10233;50.814;6.590;2023-03-31T03:48:43;98730.09;;;11.43;100.00
20145;BME280;10233;50.814;6.590;2023-03-31T03:49:43;98725.66;;;11.48;100.00
20145;BME280;10233;50.814;6.590;2023-03-31T03:50:45;98729.31;;;11.42;100.00
20145;BME280;10233;50.814;6.590;2023-03-31T03:51:46;98716.31;;;11.46;100.00
20145;BME280;10233;50.814;6.590;2023-03-31T03:52:46;98718.09;;;11.40;100.00
20145;BME280;10233;50.814;6.590;2023-03-31T03:53:47;98710.34;;;11.39;100.00
20145;BME280;10233;50.814;6.590;2023-03-31T03:54:47;98703.66;;;11.36;100.00
20145;BME280;10233;50.814;6.590;2023-03-31T03:55:48;98701.56;;;11.38;100.00
20145;BME280;10233;50.814;6.590;2023-03-31T03:56:49;98708.44;;;11.34;100.00
20145;BME280;10233;50.814;6.590;2023-03-31T03:57:49;98691.91;;;11.32;100.00
20145;BME280;10233;50.814;6.590;2023-03-31T03:58:50;98700.44;;;11.34;100.00
20145;BME280;10233;50.814;6.590;2023-03-31T03:59:51;98696.41;;;11.32;100.00
20145;BME280;10233;50.814;6.590;2023-03-31T04:00:52;98692.72;;;11.33;100.00
20145;BME280;10233;50.814;6.590;2023-03-31T04:01:52;98684.66;;;11.28;100.00
20145;BME280;10233;50.814;6.590;2023-03-31T04:02:53;98678.53;;;11.27;100.00
20145;BME280;10233;50.814;6.590;2023-03-31T04:03:53;98680.09;;;11.23;100.00
20145;BME280;10233;50.814;6.590;2023-03-31T04:04:54;98673.88;;;11.18;100.00
20145;BME280;10233;50.814;6.590;2023-03-31T04:05:55;98671.28;;;11.23;100.00
20145;BME280;10233;50.814;6.590;2023-03-31T04:06:55;98671.53;;;11.21;100.00
20145;BME280;10233;50.814;6.590;2023-03-31T04:07:56;98670.91;;;11.14;100.00
20145;BME280;10233;50.814;6.590;2023-03-31T04:08:56;98669.78;;;11.10;100.00
20145;BME280;10233;50.814;6.590;2023-03-31T04:09:57;98662.13;;;11.14;100.00
20145;BME280;10233;50.814;6.590;2023-03-31T04:10:58;98658.72;;;11.18;100.00
20145;BME280;10233;50.814;6.590;2023-03-31T04:11:58;98656.88;;;11.19;100.00
20145;BME280;10233;50.814;6.590;2023-03-31T04:12:59;98658.59;;;11.08;100.00
20145;BME280;10233;50.814;6.590;2023-03-31T04:14:00;98657.06;;;11.12;100.00
20145;BME280;10233;50.814;6.590;2023-03-31T04:15:01;98648.19;;;11.07;100.00
20145;BME280;10233;50.814;6.590;2023-03-31T04:16:02;98639.97;;;11.08;100.00
20145;BME280;10233;50.814;6.590;2023-03-31T04:17:02;98635.22;;;11.10;100.00
20145;BME280;10233;50.814;6.590;2023-03-31T04:18:03;98623.34;;;11.18;100.00
20145;BME280;10233;50.814;6.590;2023-03-31T04:19:04;98617.94;;;11.13;100.00
20145;BME280;10233;50.814;6.590;2023-03-31T04:20:09;98618.78;;;11.13;100.00
20145;BME280;10233;50.814;6.590;2023-03-31T04:21:12;98621.97;;;11.15;100.00
20145;BME280;10233;50.814;6.590;2023-03-31T04:22:21;98633.19;;;11.17;100.00
20145;BME280;10233;50.814;6.590;2023-03-31T04:23:22;98637.53;;;11.23;100.00
20145;BME280;10233;50.814;6.590;2023-03-31T04:24:26;98638.50;;;11.17;100.00
20145;BME280;10233;50.814;6.590;2023-03-31T04:25:30;98635.66;;;11.24;100.00
20145;BME280;10233;50.814;6.590;2023-03-31T04:26:33;98627.94;;;11.22;100.00
20145;BME280;10233;50.814;6.590;2023-03-31T04:27:48;98617.59;;;11.26;100.00
20145;BME280;10233;50.814;6.590;2023-03-31T04:28:58;98617.59;;;11.26;100.00
20145;BME280;10233;50.814;6.590;2023-03-31T04:29:59;98602.94;;;11.23;100.00
20145;BME280;10233;50.814;6.590;2023-03-31T04:31:01;98610.41;;;11.26;100.00
20145;BME280;10233;50.814;6.590;2023-03-31T04:32:02;98607.69;;;11.21;100.00
20145;BME280;10233;50.814;6.590;2023-03-31T04:33:03;98603.50;;;11.25;100.00
20145;BME280;10233;50.814;6.590;2023-03-31T04:34:05;98590.88;;;11.16;100.00
20145;BME280;10233;50.814;6.590;2023-03-31T04:35:12;98583.31;;;11.08;100.00
20145;BME280;10233;50.814;6.590;2023-03-31T04:36:14;98585.44;;;11.06;100.00
20145;BME280;10233;50.814;6.590;2023-03-31T04:37:17;98580.13;;;11.06;100.00
20145;BME280;10233;50.814;6.590;2023-03-31T04:38:23;98584.13;;;11.08;100.00
20145;BME280;10233;50.814;6.590;2023-03-31T04:39:23;98570.25;;;11.06;100.00
20145;BME280;10233;50.814;6.590;2023-03-31T04:40:30;98571.56;;;11.04;100.00
20145;BME280;10233;50.814;6.590;2023-03-31T04:41:33;98574.56;;;11.07;100.00
20145;BME280;10233;50.814;6.590;2023-03-31T04:42:33;98564.09;;;11.01;100.00
20145;BME280;10233;50.814;6.590;2023-03-31T04:43:34;98568.06;;;10.98;100.00
20145;BME280;10233;50.814;6.590;2023-03-31T04:44:34;98558.38;;;10.92;100.00
20145;BME280;10233;50.814;6.590;2023-03-31T04:45:35;98565.88;;;10.95;100.00
20145;BME280;10233;50.814;6.590;2023-03-31T04:46:35;98556.34;;;10.99;100.00
20145;BME280;10233;50.814;6.590;2023-03-31T04:47:37;98553.13;;;10.97;100.00
20145;BME280;10233;50.814;6.590;2023-03-31T04:48:37;98539.59;;;10.99;100.00
20145;BME280;10233;50.814;6.590;2023-03-31T04:49:38;98547.69;;;11.09;100.00
20145;BME280;10233;50.814;6.590;2023-03-31T04:50:42;98537.13;;;11.14;100.00
20145;BME280;10233;50.814;6.590;2023-03-31T04:51:42;98530.78;;;11.15;100.00
20145;BME280;10233;50.814;6.590;2023-03-31T04:52:44;98543.63;;;11.23;100.00
20145;BME280;10233;50.814;6.590;2023-03-31T04:53:45;98533.78;;;11.23;100.00
20145;BME280;10233;50.814;6.590;2023-03-31T04:54:46;98533.50;;;11.20;100.00
20145;BME280;10233;50.814;6.590;2023-03-31T04:55:47;98532.19;;;11.22;100.00
20145;BME280;10233;50.814;6.590;2023-03-31T04:56:48;98532.97;;;11.23;100.00
20145;BME280;10233;50.814;6.590;2023-03-31T04:57:49;98527.47;;;11.29;100.00
20145;BME280;10233;50.814;6.590;2023-03-31T04:58:50;98511.38;;;11.41;100.00
20145;BME280;10233;50.814;6.590;2023-03-31T04:59:51;98505.09;;;11.52;100.00
20145;BME280;10233;50.814;6.590;2023-03-31T05:00:52;98497.97;;;11.57;100.00
20145;BME280;10233;50.814;6.590;2023-03-31T05:01:53;98497.72;;;11.59;100.00
20145;BME280;10233;50.814;6.590;2023-03-31T05:02:53;98501.19;;;11.59;100.00
20145;BME280;10233;50.814;6.590;2023-03-31T05:03:54;98493.22;;;11.59;100.00
20145;BME280;10233;50.814;6.590;2023-03-31T05:04:54;98489.59;;;11.70;100.00
20145;BME280;10233;50.814;6.590;2023-03-31T05:05:55;98495.72;;;11.71;100.00
20145;BME280;10233;50.814;6.590;2023-03-31T05:06:55;98492.03;;;11.77;100.00
20145;BME280;10233;50.814;6.590;2023-03-31T05:07:56;98492.88;;;11.77;100.00
20145;BME280;10233;50.814;6.590;2023-03-31T05:08:57;98486.69;;;11.72;100.00
20145;BME280;10233;50.814;6.590;2023-03-31T05:09:57;98488.59;;;11.76;100.00
20145;BME280;10233;50.814;6.590;2023-03-31T05:10:58;98485.94;;;11.76;100.00
20145;BME280;10233;50.814;6.590;2023-03-31T05:11:58;98482.47;;;11.76;100.00
20145;BME280;10233;50.814;6.590;2023-03-31T05:12:59;98493.97;;;11.81;100.00
20145;BME280;10233;50.814;6.590;2023-03-31T05:13:59;98483.81;;;11.78;100.00
20145;BME280;10233;50.814;6.590;2023-03-31T05:15:00;98490.44;;;11.76;100.00
20145;BME280;10233;50.814;6.590;2023-03-31T05:16:09;98474.28;;;11.82;100.00
20145;BME280;10233;50.814;6.590;2023-03-31T05:17:11;98474.75;;;11.79;100.00
20145;BME280;10233;50.814;6.590;2023-03-31T05:18:12;98473.78;;;11.85;100.00
20145;BME280;10233;50.814;6.590;2023-03-31T05:19:12;98467.63;;;11.85;100.00
20145;BME280;10233;50.814;6.590;2023-03-31T05:20:13;98463.91;;;11.86;100.00
20145;BME280;10233;50.814;6.590;2023-03-31T05:21:16;98466.28;;;11.82;100.00
20145;BME280;10233;50.814;6.590;2023-03-31T05:22:17;98467.84;;;11.78;100.00
20145;BME280;10233;50.814;6.590;2023-03-31T05:23:19;98464.97;;;11.85;100.00
20145;BME280;10233;50.814;6.590;2023-03-31T05:24:20;98466.81;;;11.84;100.00
20145;BME280;10233;50.814;6.590;2023-03-31T05:25:21;98466.84;;;11.89;100.00
20145;BME280;10233;50.814;6.590;2023-03-31T05:26:23;98468.22;;;11.92;100.00
20145;BME280;10233;50.814;6.590;2023-03-31T05:27:24;98462.09;;;11.91;100.00
20145;BME280;10233;50.814;6.590;2023-03-31T05:28:25;98467.44;;;11.91;100.00
20145;BME280;10233;50.814;6.590;2023-03-31T05:29:25;98461.84;;;11.93;100.00
20145;BME280;10233;50.814;6.590;2023-03-31T05:30:27;98461.53;;;11.89;100.00
20145;BME280;10233;50.814;6.590;2023-03-31T05:31:28;98459.97;;;11.93;100.00
20145;BME280;10233;50.814;6.590;2023-03-31T05:32:28;98457.06;;;11.95;100.00
20145;BME280;10233;50.814;6.590;2023-03-31T05:33:29;98469.31;;;11.96;100.00
20145;BME280;10233;50.814;6.590;2023-03-31T05:34:30;98466.13;;;11.94;100.00
20145;BME280;10233;50.814;6.590;2023-03-31T05:35:30;98460.78;;;11.94;100.00
20145;BME280;10233;50.814;6.590;2023-03-31T05:36:31;98452.81;;;11.94;100.00
20145;BME280;10233;50.814;6.590;2023-03-31T05:37:31;98463.16;;;11.90;100.00
20145;BME280;10233;50.814;6.590;2023-03-31T05:38:32;98463.66;;;11.87;100.00
20145;BME280;10233;50.814;6.590;2023-03-31T05:39:33;98463.69;;;11.92;100.00
20145;BME280;10233;50.814;6.590;2023-03-31T05:40:34;98461.53;;;11.89;100.00
20145;BME280;10233;50.814;6.590;2023-03-31T05:41:35;98458.88;;;11.89;100.00
20145;BME280;10233;50.814;6.590;2023-03-31T05:42:36;98470.59;;;11.88;100.00
20145;BME280;10233;50.814;6.590;2023-03-31T05:43:37;98460.75;;;11.89;100.00
20145;BME280;10233;50.814;6.590;2023-03-31T05:44:38;98464.72;;;11.86;100.00
20145;BME280;10233;50.814;6.590;2023-03-31T05:45:39;98466.81;;;11.84;100.00
20145;BME280;10233;50.814;6.590;2023-03-31T05:46:40;98469.03;;;11.92;100.00
20145;BME280;10233;50.814;6.590;2023-03-31T05:47:41;98464.19;;;11.89;100.00
20145;BME280;10233;50.814;6.590;2023-03-31T05:48:42;98459.69;;;11.90;100.00
20145;BME280;10233;50.814;6.590;2023-03-31T05:49:44;98480.69;;;11.86;100.00
20145;BME280;10233;50.814;6.590;2023-03-31T05:50:44;98468.44;;;11.85;100.00
20145;BME280;10233;50.814;6.590;2023-03-31T05:51:45;98469.75;;;11.83;100.00
20145;BME280;10233;50.814;6.590;2023-03-31T05:52:47;98472.66;;;11.81;100.00
20145;BME280;10233;50.814;6.590;2023-03-31T05:53:47;98477.19;;;11.81;100.00
20145;BME280;10233;50.814;6.590;2023-03-31T05:54:48;98478.00;;;11.81;100.00
20145;BME280;10233;50.814;6.590;2023-03-31T05:55:48;98470.13;;;11.65;100.00
20145;BME280;10233;50.814;6.590;2023-03-31T05:56:49;98459.03;;;11.46;100.00
20145;BME280;10233;50.814;6.590;2023-03-31T05:57:49;98445.50;;;11.26;100.00
20145;BME280;10233;50.814;6.590;2023-03-31T05:58:50;98449.34;;;11.14;100.00
20145;BME280;10233;50.814;6.590;2023-03-31T05:59:51;98439.19;;;11.06;100.00
20145;BME280;10233;50.814;6.590;2023-03-31T06:02:11;98431.59;;;10.93;100.00
20145;BME280;10233;50.814;6.590;2023-03-31T06:03:12;98435.59;;;10.95;100.00
20145;BME280;10233;50.814;6.590;2023-03-31T06:04:13;98434.00;;;10.94;100.00
20145;BME280;10233;50.814;6.590;2023-03-31T06:05:13;98430.28;;;10.95;100.00
20145;BME280;10233;50.814;6.590;2023-03-31T06:06:14;98438.25;;;10.95;100.00
20145;BME280;10233;50.814;6.590;2023-03-31T06:07:18;98432.47;;;10.98;100.00
20145;BME280;10233;50.814;6.590;2023-03-31T06:08:19;98426.81;;;10.95;100.00
20145;BME280;10233;50.814;6.590;2023-03-31T06:09:19;98436.91;;;10.93;100.00
20145;BME280;10233;50.814;6.590;2023-03-31T06:10:20;98430.88;;;11.02;100.00
20145;BME280;10233;50.814;6.590;2023-03-31T06:11:21;98425.56;;;11.02;100.00
20145;BME280;10233;50.814;6.590;2023-03-31T06:12:22;98422.91;;;11.02;100.00
20145;BME280;10233;50.814;6.590;2023-03-31T06:13:22;98429.91;;;11.08;100.00
20145;BME280;10233;50.814;6.590;2023-03-31T06:14:23;98417.72;;;11.12;100.00
20145;BME280;10233;50.814;6.590;2023-03-31T06:15:24;98418.22;;;11.09;100.00
20145;BME280;10233;50.814;6.590;2023-03-31T06:16:25;98418.75;;;11.11;100.00
20145;BME280;10233;50.814;6.590;2023-03-31T06:17:25;98422.81;;;11.19;100.00
20145;BME280;10233;50.814;6.590;2023-03-31T06:18:28;98417.28;;;11.25;100.00
20145;BME280;10233;50.814;6.590;2023-03-31T06:19:29;98423.78;;;11.34;100.00
20145;BME280;10233;50.814;6.590;2023-03-31T06:20:30;98415.28;;;11.37;100.00
20145;BME280;10233;50.814;6.590;2023-03-31T06:21:34;98413.41;;;11.38;100.00
20145;BME280;10233;50.814;6.590;2023-03-31T06:22:35;98418.25;;;11.41;100.00